createdAt,value
2023-02-15T00:00:18.590Z,11.50
2023-02-15T00:02:46.879Z,12.33
2023-02-15T00:05:15.144Z,12.23
2023-02-15T00:07:44.794Z,12.60
2023-02-15T00:10:13.246Z,11.60
2023-02-15T00:15:21.490Z,13.27
2023-02-15T00:17:49.748Z,12.50
2023-02-15T00:20:19.383Z,14.03
2023-02-15T00:22:49.001Z,14.07
2023-02-15T00:25:17.334Z,13.50
2023-02-15T00:27:45.584Z,12.73
2023-02-15T00:30:14.943Z,12.67
2023-02-15T00:32:43.263Z,12.77
2023-02-15T00:35:11.701Z,14.07
2023-02-15T00:37:40.030Z,12.77
2023-02-15T00:40:11.437Z,13.50
2023-02-15T00:42:39.707Z,13.57
2023-02-15T00:45:09.235Z,12.93
2023-02-15T00:47:37.564Z,13.23
2023-02-15T00:50:07.432Z,12.60
2023-02-15T00:52:35.669Z,12.40
2023-02-15T00:55:03.909Z,11.23
2023-02-15T00:57:33.492Z,10.57
2023-02-15T01:00:01.696Z,11.07
2023-02-15T01:02:30.349Z,10.47
2023-02-15T01:04:58.588Z,9.93
2023-02-15T01:07:26.872Z,11.10
2023-02-15T01:09:55.134Z,10.67
2023-02-15T01:12:23.393Z,9.70
2023-02-15T01:14:52.997Z,11.33
2023-02-15T01:17:21.214Z,9.80
2023-02-15T01:19:49.754Z,11.33
2023-02-15T01:22:18.005Z,11.83
2023-02-15T01:24:46.501Z,12.10
2023-02-15T01:27:14.716Z,11.37
2023-02-15T01:29:42.935Z,11.40
2023-02-15T01:32:12.573Z,11.47
2023-02-15T01:34:40.805Z,11.47
2023-02-15T01:37:09.055Z,10.87
2023-02-15T01:39:37.304Z,10.57
2023-02-15T01:42:05.828Z,11.23
2023-02-15T01:44:59.090Z,12.37
2023-02-15T01:47:36.118Z,11.53
2023-02-15T01:50:12.395Z,10.10
2023-02-15T01:52:48.792Z,11.03
2023-02-15T01:55:18.042Z,10.80
2023-02-15T01:57:48.650Z,10.93
2023-02-15T02:00:18.598Z,11.90
2023-02-15T02:02:51.077Z,10.53
2023-02-15T02:05:19.785Z,11.70
2023-02-15T02:07:51.017Z,10.50
2023-02-15T02:10:21.425Z,9.57
2023-02-15T02:12:54.610Z,10.20
2023-02-15T02:15:32.469Z,11.03
2023-02-15T02:18:20.013Z,10.67
2023-02-15T02:21:23.634Z,10.50
2023-02-15T02:24:40.910Z,10.13
2023-02-15T02:27:32.014Z,11.17
2023-02-15T02:30:46.620Z,9.57
2023-02-15T02:33:53.880Z,11.30
2023-02-15T02:36:32.468Z,10.87
2023-02-15T02:39:24.770Z,11.30
2023-02-15T02:42:00.906Z,11.00
2023-02-15T02:44:37.534Z,10.47
2023-02-15T02:47:12.431Z,11.63
2023-02-15T02:49:44.305Z,10.97
2023-02-15T02:52:41.878Z,10.07
2023-02-15T02:55:16.477Z,11.20
2023-02-15T02:57:54.766Z,10.93
2023-02-15T03:00:25.437Z,10.87
2023-02-15T03:02:59.489Z,11.10
2023-02-15T03:05:31.878Z,10.47
2023-02-15T03:08:06.931Z,10.77
2023-02-15T03:10:37.999Z,10.63
2023-02-15T03:13:06.357Z,11.87
2023-02-15T03:15:56.928Z,11.30
2023-02-15T03:18:30.615Z,10.63
2023-02-15T03:21:03.852Z,11.07
2023-02-15T03:23:34.440Z,11.00
2023-02-15T03:26:05.731Z,12.00
2023-02-15T03:28:38.748Z,11.80
2023-02-15T03:31:09.935Z,12.00
2023-02-15T03:33:44.644Z,12.33
2023-02-15T03:36:21.639Z,11.90
2023-02-15T03:39:00.230Z,11.20
2023-02-15T03:41:36.252Z,12.00
2023-02-15T03:44:11.776Z,11.87
2023-02-15T03:46:47.511Z,11.43
2023-02-15T03:49:23.380Z,12.23
2023-02-15T03:51:57.005Z,12.13
2023-02-15T03:54:44.227Z,11.37
2023-02-15T03:57:33.719Z,11.63
2023-02-15T04:00:22.320Z,11.67
2023-02-15T04:03:11.890Z,11.57
2023-02-15T04:05:40.936Z,10.80
2023-02-15T04:08:11.825Z,11.17
2023-02-15T04:10:54.345Z,10.87
2023-02-15T04:13:23.323Z,10.60
2023-02-15T04:16:07.120Z,12.40
2023-02-15T04:18:56.242Z,11.43
2023-02-15T04:21:44.232Z,12.23
2023-02-15T04:24:32.164Z,11.83
2023-02-15T04:27:01.320Z,12.40
2023-02-15T04:29:30.893Z,11.37
2023-02-15T04:32:03.519Z,13.17
2023-02-15T04:34:31.884Z,12.03
2023-02-15T04:37:00.135Z,11.43
2023-02-15T04:39:29.779Z,12.00
2023-02-15T04:41:58.056Z,12.07
2023-02-15T04:44:26.826Z,13.73
2023-02-15T04:46:55.813Z,12.50
2023-02-15T04:49:24.042Z,13.27
2023-02-15T04:51:52.298Z,13.47
2023-02-15T04:54:20.570Z,13.50
2023-02-15T04:56:50.167Z,12.73
2023-02-15T04:59:18.416Z,12.43
2023-02-15T05:01:46.650Z,13.63
2023-02-15T05:04:15.024Z,12.03
2023-02-15T05:06:43.383Z,12.17
2023-02-15T05:09:15.180Z,11.83
2023-02-15T05:11:43.442Z,11.97
2023-02-15T05:14:13.082Z,11.67
2023-02-15T05:16:41.590Z,9.83
2023-02-15T05:19:10.227Z,11.63
2023-02-15T05:21:38.548Z,10.83
2023-02-15T05:24:28.540Z,12.43
2023-02-15T05:27:10.651Z,12.30
2023-02-15T05:29:40.239Z,12.60
2023-02-15T05:32:08.618Z,12.27
2023-02-15T05:34:36.991Z,12.40
2023-02-15T05:37:05.204Z,11.93
2023-02-15T05:39:33.458Z,13.07
2023-02-15T05:42:01.880Z,11.53
2023-02-15T05:44:30.613Z,12.53
2023-02-15T05:47:00.167Z,12.77
2023-02-15T05:49:28.450Z,12.50
2023-02-15T05:51:56.748Z,12.50
2023-02-15T05:54:24.968Z,11.77
2023-02-15T05:56:53.170Z,12.70
2023-02-15T05:59:21.389Z,11.77
2023-02-15T06:01:49.592Z,11.70
2023-02-15T06:04:19.245Z,12.40
2023-02-15T06:06:47.620Z,12.53
2023-02-15T06:09:19.154Z,13.23
2023-02-15T06:11:47.723Z,13.67
2023-02-15T06:14:15.988Z,12.37
2023-02-15T06:16:44.215Z,13.50
2023-02-15T06:19:12.436Z,13.50
2023-02-15T06:21:42.045Z,11.77
2023-02-15T06:24:11.322Z,13.27
2023-02-15T06:26:39.530Z,13.70
2023-02-15T06:29:07.832Z,14.53
2023-02-15T06:31:36.183Z,14.07
2023-02-15T06:34:04.568Z,13.73
2023-02-15T06:36:33.546Z,15.30
2023-02-15T06:39:04.064Z,15.77
2023-02-15T06:41:32.690Z,15.50
2023-02-15T06:44:01.118Z,14.97
2023-02-15T06:46:29.385Z,15.10
2023-02-15T06:48:57.650Z,15.97
2023-02-15T06:51:25.958Z,14.77
2023-02-15T06:53:54.228Z,15.57
2023-02-15T06:56:23.962Z,15.40
2023-02-15T06:58:53.574Z,14.83
2023-02-15T07:01:21.888Z,15.83
2023-02-15T07:03:50.222Z,14.90
2023-02-15T07:06:18.448Z,16.23
2023-02-15T07:08:46.670Z,15.63
2023-02-15T07:11:32.628Z,15.80
2023-02-15T07:14:02.239Z,14.37
2023-02-15T07:16:30.955Z,15.47
2023-02-15T07:18:59.258Z,14.53
2023-02-15T07:21:27.578Z,14.83
2023-02-15T07:23:59.025Z,16.53
2023-02-15T07:26:27.506Z,15.27
2023-02-15T07:28:55.785Z,16.23
2023-02-15T07:31:25.450Z,15.63
2023-02-15T07:33:53.737Z,15.40
2023-02-15T07:36:21.972Z,15.83
2023-02-15T07:38:50.263Z,15.27
2023-02-15T07:41:18.597Z,15.50
2023-02-15T07:43:47.738Z,15.83
2023-02-15T07:46:18.906Z,15.17
2023-02-15T07:48:48.930Z,14.50
2023-02-15T07:51:17.242Z,14.83
2023-02-15T07:53:45.573Z,14.13
2023-02-15T07:56:15.731Z,15.40
2023-02-15T07:58:52.689Z,15.80
2023-02-15T08:05:27.935Z,13.40
2023-02-15T08:07:56.172Z,12.90
2023-02-15T08:10:44.495Z,13.87
2023-02-15T08:13:12.736Z,13.13
2023-02-15T08:15:41.053Z,14.50
2023-02-15T08:18:09.278Z,13.30
2023-02-15T08:20:38.940Z,15.30
2023-02-15T08:23:07.148Z,14.70
2023-02-15T08:25:35.431Z,13.70
2023-02-15T08:28:03.660Z,13.87
2023-02-15T08:30:33.363Z,15.27
2023-02-15T08:33:03.356Z,14.77
2023-02-15T08:35:31.592Z,15.63
2023-02-15T08:38:01.204Z,15.13
2023-02-15T08:40:29.458Z,16.07
2023-02-15T08:42:57.750Z,15.50
2023-02-15T08:45:26.472Z,13.77
2023-02-15T08:47:55.453Z,14.50
2023-02-15T08:50:23.939Z,14.13
2023-02-15T08:52:52.182Z,14.07
2023-02-15T08:55:21.803Z,13.83
2023-02-15T08:57:50.070Z,15.33
2023-02-15T09:00:20.007Z,15.27
2023-02-15T09:02:48.256Z,14.43
2023-02-15T09:05:16.660Z,13.83
2023-02-15T09:07:44.897Z,14.87
2023-02-15T09:10:13.147Z,13.43
2023-02-15T09:12:42.727Z,14.43
2023-02-15T09:15:11.915Z,14.27
2023-02-15T09:17:40.147Z,13.77
2023-02-15T09:20:10.062Z,13.80
2023-02-15T09:22:38.332Z,13.93
2023-02-15T09:25:07.386Z,14.90
2023-02-15T09:27:35.638Z,15.03
2023-02-15T09:30:05.919Z,12.63
2023-02-15T09:32:34.250Z,14.00
2023-02-15T09:35:02.482Z,13.57
2023-02-15T09:37:32.754Z,12.87
2023-02-15T09:40:01.254Z,14.00
2023-02-15T09:43:00.613Z,15.00
2023-02-15T09:45:44.543Z,13.70
2023-02-15T09:48:41.128Z,13.60
2023-02-15T09:51:29.997Z,15.27
2023-02-15T09:54:18.127Z,14.77
2023-02-15T09:56:54.349Z,14.00
2023-02-15T09:59:32.460Z,13.90
2023-02-15T10:02:21.025Z,13.33
2023-02-15T10:05:02.768Z,13.27
2023-02-15T10:07:56.178Z,12.97
2023-02-15T10:10:34.462Z,14.13
2023-02-15T10:13:24.241Z,13.40
2023-02-15T10:16:08.976Z,14.40
2023-02-15T10:19:04.889Z,13.30
2023-02-15T10:21:51.245Z,13.73
2023-02-15T10:24:56.676Z,13.33
2023-02-15T10:27:24.882Z,13.00
2023-02-15T10:30:06.866Z,13.33
2023-02-15T10:32:49.222Z,13.17
2023-02-15T10:35:28.878Z,13.87
2023-02-15T10:38:11.230Z,14.67
2023-02-15T10:40:51.503Z,13.60
2023-02-15T10:43:48.557Z,13.40
2023-02-15T10:46:37.829Z,13.80
2023-02-15T10:49:37.222Z,12.40
2023-02-15T10:52:28.714Z,12.67
2023-02-15T10:55:11.025Z,13.40
2023-02-15T10:57:53.554Z,14.80
2023-02-15T11:00:30.088Z,12.20
2023-02-15T11:03:19.527Z,14.40
2023-02-15T11:05:59.594Z,13.63
2023-02-15T11:08:33.428Z,13.03
2023-02-15T11:11:07.836Z,13.77
2023-02-15T11:13:42.165Z,13.57
2023-02-15T11:16:18.640Z,14.80
2023-02-15T11:18:53.701Z,13.30
2023-02-15T11:21:25.310Z,13.87
2023-02-15T11:23:55.872Z,14.83
2023-02-15T11:26:31.198Z,14.03
2023-02-15T11:29:04.110Z,12.23
2023-02-15T11:31:44.948Z,13.63
2023-02-15T11:34:21.027Z,12.67
2023-02-15T11:36:52.395Z,12.57
2023-02-15T11:39:24.248Z,12.97
2023-02-15T11:41:55.919Z,12.80
2023-02-15T11:44:30.354Z,12.30
2023-02-15T11:46:59.051Z,12.77
2023-02-15T11:49:32.701Z,12.00
2023-02-15T11:52:05.242Z,13.07
2023-02-15T11:54:38.583Z,13.23
2023-02-15T11:57:16.520Z,13.13
2023-02-15T11:59:51.928Z,13.60
2023-02-15T12:02:23.110Z,13.87
2023-02-15T12:04:55.232Z,12.73
2023-02-15T12:07:29.624Z,13.60
2023-02-15T12:10:08.051Z,12.80
2023-02-15T12:12:37.794Z,14.67
2023-02-15T12:15:08.556Z,14.00
2023-02-15T12:17:42.817Z,14.87
2023-02-15T12:20:30.694Z,15.17
2023-02-15T12:23:04.182Z,13.43
2023-02-15T12:25:42.196Z,15.57
2023-02-15T12:28:26.951Z,14.83
2023-02-15T12:30:57.400Z,14.27
2023-02-15T12:33:32.333Z,13.53
2023-02-15T12:36:04.754Z,14.70
2023-02-15T12:38:35.198Z,14.93
2023-02-15T12:41:07.761Z,14.43
2023-02-15T12:43:39.319Z,14.87
2023-02-15T12:46:23.899Z,14.67
2023-02-15T12:49:10.053Z,14.60
2023-02-15T12:51:47.265Z,14.93
2023-02-15T12:54:30.996Z,16.10
2023-02-15T12:57:01.233Z,15.20
2023-02-15T12:59:29.508Z,14.53
2023-02-15T13:01:58.012Z,16.10
2023-02-15T13:04:29.413Z,15.27
2023-02-15T13:07:03.042Z,18.03
2023-02-15T13:09:40.763Z,15.77
2023-02-15T13:12:22.425Z,16.60
2023-02-15T13:14:53.749Z,15.93
2023-02-15T13:17:30.314Z,16.67
2023-02-15T13:20:04.998Z,17.53
2023-02-15T13:22:43.084Z,15.23
2023-02-15T13:25:17.017Z,17.40
2023-02-15T13:27:48.567Z,17.67
2023-02-15T13:30:30.187Z,18.30
2023-02-15T13:33:04.384Z,17.57
2023-02-15T13:35:43.245Z,17.83
2023-02-15T13:38:47.295Z,17.57
2023-02-15T13:41:19.893Z,18.30
2023-02-15T13:44:01.871Z,21.73
2023-02-15T13:46:47.799Z,18.83
2023-02-15T13:49:41.120Z,18.57
2023-02-15T13:52:21.400Z,18.73
2023-02-15T13:55:26.679Z,17.07
2023-02-15T13:58:33.917Z,17.87
2023-02-15T14:01:13.642Z,17.57
2023-02-15T14:04:16.315Z,18.10
2023-02-15T14:07:08.575Z,17.27
2023-02-15T14:09:49.604Z,16.70
2023-02-15T14:12:46.877Z,17.10
2023-02-15T14:15:28.632Z,18.20
2023-02-15T14:18:13.497Z,17.83
2023-02-15T14:20:58.840Z,17.57
2023-02-15T14:23:41.757Z,17.90
2023-02-15T14:26:19.207Z,19.37
2023-02-15T14:28:55.092Z,17.20
2023-02-15T14:31:31.955Z,18.23
2023-02-15T14:34:01.659Z,18.80
2023-02-15T14:36:32.639Z,18.47
2023-02-15T14:39:31.301Z,18.93
2023-02-15T14:42:06.881Z,19.93
2023-02-15T14:44:41.027Z,20.53
2023-02-15T14:47:18.616Z,23.47
2023-02-15T14:49:48.230Z,21.53
2023-02-15T14:52:16.441Z,21.77
2023-02-15T14:55:01.901Z,20.93
2023-02-15T14:57:36.248Z,19.93
2023-02-15T15:00:40.037Z,21.13
2023-02-15T15:03:23.062Z,19.20
2023-02-15T15:06:06.030Z,19.73
2023-02-15T15:08:38.781Z,20.23
2023-02-15T15:11:44.126Z,20.57
2023-02-15T15:14:40.964Z,20.17
2023-02-15T15:17:13.541Z,19.33
2023-02-15T15:20:14.427Z,18.57
2023-02-15T15:22:45.722Z,19.93
2023-02-15T15:25:42.852Z,22.37
2023-02-15T15:28:11.144Z,20.93
2023-02-15T15:31:07.201Z,22.33
2023-02-15T15:34:26.966Z,20.93
2023-02-15T15:37:54.415Z,19.33
2023-02-15T15:41:05.694Z,19.43
2023-02-15T15:44:36.287Z,20.13
2023-02-15T15:47:36.026Z,19.33
2023-02-15T15:50:14.325Z,18.80
2023-02-15T15:52:47.108Z,18.80
2023-02-15T15:55:20.992Z,18.80
2023-02-15T15:57:54.439Z,22.03
2023-02-15T16:00:37.600Z,19.97
2023-02-15T16:03:06.378Z,23.27
2023-02-15T16:05:39.898Z,21.73
2023-02-15T16:08:08.566Z,23.70
2023-02-15T16:10:38.921Z,32.40
2023-02-15T16:13:09.308Z,26.43
2023-02-15T16:15:46.435Z,22.47
2023-02-15T16:18:18.865Z,21.03
2023-02-15T16:20:54.207Z,19.67
2023-02-15T16:24:06.200Z,28.17
2023-02-15T16:27:01.742Z,23.17
2023-02-15T16:29:34.857Z,21.10
2023-02-15T16:32:05.950Z,20.50
2023-02-15T16:34:34.926Z,19.60
2023-02-15T16:37:17.924Z,18.83
2023-02-15T16:39:49.027Z,19.70
2023-02-15T16:42:19.245Z,19.67
2023-02-15T16:44:54.271Z,20.47
2023-02-15T16:47:27.711Z,19.17
2023-02-15T16:49:59.426Z,19.07
2023-02-15T16:52:30.161Z,20.13
2023-02-15T16:55:01.166Z,20.13
2023-02-15T16:57:34.053Z,20.07
2023-02-15T17:00:08.382Z,26.17
2023-02-15T17:02:54.995Z,21.47
2023-02-15T17:05:25.723Z,20.40
2023-02-15T17:08:15.249Z,21.13
2023-02-15T17:10:47.047Z,20.67
2023-02-15T17:13:16.219Z,22.07
2023-02-15T17:16:28.776Z,22.73
2023-02-15T17:18:59.396Z,20.43
2023-02-15T17:21:33.838Z,21.33
2023-02-15T17:24:05.130Z,22.00
2023-02-15T17:26:36.447Z,20.07
2023-02-15T17:29:15.061Z,21.23
2023-02-15T17:31:51.751Z,22.37
2023-02-15T17:34:47.240Z,22.87
2023-02-15T17:37:26.381Z,23.63
2023-02-15T17:39:55.220Z,27.50
2023-02-15T17:42:23.530Z,23.17
2023-02-15T17:44:51.840Z,22.83
2023-02-15T17:47:25.585Z,22.97
2023-02-15T17:49:55.841Z,21.63
2023-02-15T17:52:25.116Z,21.87
2023-02-15T17:55:12.973Z,34.50
2023-02-15T17:57:41.256Z,27.87
2023-02-15T18:00:33.296Z,22.50
2023-02-15T18:03:20.507Z,20.90
2023-02-15T18:06:06.100Z,21.20
2023-02-15T18:08:51.729Z,20.33
2023-02-15T18:11:38.410Z,19.67
2023-02-15T18:14:08.317Z,19.13
2023-02-15T18:16:40.868Z,20.80
2023-02-15T18:19:18.015Z,21.77
2023-02-15T18:21:47.227Z,20.27
2023-02-15T18:24:20.457Z,22.30
2023-02-15T18:26:49.590Z,21.17
2023-02-15T18:29:18.022Z,20.37
2023-02-15T18:31:49.767Z,19.53
2023-02-15T18:34:28.730Z,19.57
2023-02-15T18:36:58.094Z,19.13
2023-02-15T18:39:32.460Z,21.87
2023-02-15T18:42:00.784Z,18.20
2023-02-15T18:44:29.126Z,20.97
2023-02-15T18:46:57.410Z,21.17
2023-02-15T18:49:27.048Z,20.03
2023-02-15T18:51:55.363Z,19.10
2023-02-15T18:54:26.055Z,18.70
2023-02-15T18:56:58.471Z,19.33
2023-02-15T18:59:30.420Z,20.83
2023-02-15T19:02:00.460Z,18.43
2023-02-15T19:04:30.114Z,20.80
2023-02-15T19:06:58.396Z,20.17
2023-02-15T19:09:27.816Z,18.73
2023-02-15T19:11:57.595Z,21.27
2023-02-15T19:14:29.824Z,20.97
2023-02-15T19:17:00.542Z,21.03
2023-02-15T19:19:30.205Z,21.23
2023-02-15T19:21:58.564Z,22.07
2023-02-15T19:24:38.585Z,21.83
2023-02-15T19:27:08.980Z,22.10
2023-02-15T19:29:38.209Z,22.47
2023-02-15T19:32:06.827Z,21.57
2023-02-15T19:34:36.476Z,20.50
2023-02-15T19:37:06.905Z,20.73
2023-02-15T19:39:40.335Z,19.57
2023-02-15T19:42:15.516Z,21.87
2023-02-15T19:44:43.788Z,19.67
2023-02-15T19:47:14.829Z,21.13
2023-02-15T19:49:44.481Z,20.43
2023-02-15T19:52:19.504Z,19.43
2023-02-15T19:54:49.276Z,20.77
2023-02-15T19:57:17.893Z,20.43
2023-02-15T19:59:46.229Z,20.83
2023-02-15T20:02:15.659Z,22.13
2023-02-15T20:04:45.440Z,22.57
2023-02-15T20:07:23.707Z,20.87
2023-02-15T20:09:52.105Z,21.73
2023-02-15T20:12:24.203Z,20.97
2023-02-15T20:14:52.515Z,20.43
2023-02-15T20:17:21.003Z,19.67
2023-02-15T20:19:51.021Z,20.17
2023-02-15T20:22:25.122Z,21.13
2023-02-15T20:24:56.243Z,20.63
2023-02-15T20:27:24.893Z,19.50
2023-02-15T20:29:56.718Z,20.83
2023-02-15T20:32:25.723Z,19.27
2023-02-15T20:34:55.421Z,19.80
2023-02-15T20:37:28.651Z,20.33
2023-02-15T20:39:57.293Z,18.90
2023-02-15T20:42:25.568Z,19.30
2023-02-15T20:44:53.811Z,19.60
2023-02-15T20:47:22.077Z,18.73
2023-02-15T20:49:50.615Z,18.20
2023-02-15T20:52:22.090Z,18.33
2023-02-15T20:54:50.541Z,18.73
2023-02-15T20:57:18.795Z,18.17
2023-02-15T20:59:47.007Z,18.00
2023-02-15T21:02:23.530Z,18.23
2023-02-15T21:04:52.044Z,20.47
2023-02-15T21:07:22.869Z,18.60
2023-02-15T21:09:52.395Z,19.37
2023-02-15T21:12:22.079Z,18.87
2023-02-15T21:14:50.494Z,17.93
2023-02-15T21:17:19.104Z,18.47
2023-02-15T21:19:47.400Z,18.47
2023-02-15T21:22:17.122Z,19.70
2023-02-15T21:24:51.668Z,18.90
2023-02-15T21:27:20.358Z,20.47
2023-02-15T21:29:48.635Z,19.47
2023-02-15T21:32:17.034Z,19.13
2023-02-15T21:34:45.424Z,19.37
2023-02-15T21:37:32.057Z,20.00
2023-02-15T21:40:02.752Z,18.87
2023-02-15T21:42:48.492Z,19.57
2023-02-15T21:45:35.494Z,19.60
2023-02-15T21:48:03.977Z,21.70
2023-02-15T21:50:49.798Z,19.53
2023-02-15T21:53:25.355Z,18.90
2023-02-15T21:55:58.640Z,18.53
2023-02-15T21:58:29.358Z,20.67
2023-02-15T22:00:59.623Z,20.43
2023-02-15T22:03:32.245Z,19.10
2023-02-15T22:06:00.592Z,19.23
2023-02-15T22:08:29.282Z,19.63
2023-02-15T22:10:59.183Z,19.47
2023-02-15T22:13:30.834Z,17.93
2023-02-15T22:15:59.999Z,19.13
2023-02-15T22:18:33.351Z,17.77
2023-02-15T22:21:03.614Z,18.30
2023-02-15T22:23:32.474Z,17.83
2023-02-15T22:26:06.486Z,19.07
2023-02-15T22:28:38.298Z,18.17
2023-02-15T22:31:13.283Z,18.60
2023-02-15T22:33:41.732Z,17.70
2023-02-15T22:36:24.820Z,17.13
2023-02-15T22:38:53.740Z,17.93
2023-02-15T22:41:24.739Z,17.87
2023-02-15T22:43:53.110Z,18.83
2023-02-15T22:46:25.461Z,17.67
2023-02-15T22:48:54.437Z,17.57
2023-02-15T22:51:25.361Z,17.63
2023-02-15T22:53:54.054Z,17.90
2023-02-15T22:56:29.563Z,17.53
2023-02-15T22:59:05.508Z,19.00
2023-02-15T23:01:37.182Z,17.37
2023-02-15T23:04:05.881Z,18.47
2023-02-15T23:06:35.370Z,18.73
2023-02-15T23:09:03.665Z,16.63
2023-02-15T23:11:33.325Z,16.33
2023-02-15T23:14:03.040Z,16.97
2023-02-15T23:16:31.901Z,16.00
2023-02-15T23:19:00.205Z,16.53
2023-02-15T23:21:32.003Z,18.37
2023-02-15T23:24:18.992Z,16.77
2023-02-15T23:26:50.556Z,15.97
2023-02-15T23:29:22.337Z,16.93
2023-02-15T23:31:53.427Z,16.67
2023-02-15T23:34:28.628Z,17.27
2023-02-15T23:36:57.874Z,17.73
2023-02-15T23:39:45.919Z,17.33
2023-02-15T23:42:19.905Z,18.27
2023-02-15T23:44:49.658Z,16.33
2023-02-15T23:47:42.640Z,15.00
2023-02-15T23:50:19.074Z,16.47
2023-02-15T23:52:47.407Z,16.93
2023-02-15T23:55:17.005Z,17.33
2023-02-15T23:57:47.522Z,18.03
